createdAt,value
2018-09-21T00:02:04.513Z,11.60
2018-09-21T00:04:45.767Z,10.60
2018-09-21T00:07:27.212Z,11.80
2018-09-21T00:10:07.875Z,9.90
2018-09-21T00:12:49.080Z,11.23
2018-09-21T00:15:30.035Z,10.00
2018-09-21T00:18:10.891Z,10.27
2018-09-21T00:20:51.937Z,9.83
2018-09-21T00:23:32.906Z,11.83
2018-09-21T00:26:13.831Z,11.50
2018-09-21T00:28:54.999Z,12.77
2018-09-21T00:31:36.167Z,11.73
2018-09-21T00:34:17.143Z,9.30
2018-09-21T00:36:58.136Z,12.33
2018-09-21T00:39:39.092Z,12.57
2018-09-21T00:42:19.684Z,11.37
2018-09-21T00:45:00.227Z,10.93
2018-09-21T00:47:40.937Z,15.87
2018-09-21T00:50:21.526Z,11.20
2018-09-21T00:53:02.121Z,11.07
2018-09-21T00:55:42.996Z,11.03
2018-09-21T00:58:23.787Z,11.90
2018-09-21T01:01:06.530Z,10.80
2018-09-21T01:03:47.379Z,9.80
2018-09-21T01:06:28.176Z,10.10
2018-09-21T01:09:10.975Z,10.83
2018-09-21T01:11:52.215Z,10.37
2018-09-21T01:14:32.984Z,10.20
2018-09-21T01:17:13.578Z,12.20
2018-09-21T01:19:54.047Z,11.93
2018-09-21T01:22:34.671Z,12.23
2018-09-21T01:25:15.243Z,9.20
2018-09-21T01:27:55.640Z,8.20
2018-09-21T01:30:36.968Z,9.33
2018-09-21T01:33:17.322Z,11.83
2018-09-21T01:35:58.255Z,10.07
2018-09-21T01:38:38.834Z,8.53
2018-09-21T01:41:19.820Z,13.50
2018-09-21T01:44:00.590Z,10.17
2018-09-21T01:46:41.346Z,12.50
2018-09-21T01:49:22.075Z,13.73
2018-09-21T01:52:02.886Z,11.77
2018-09-21T01:54:43.380Z,8.93
2018-09-21T01:57:24.074Z,12.03
2018-09-21T02:00:05.542Z,10.37
2018-09-21T02:02:46.166Z,9.77
2018-09-21T02:05:26.597Z,11.70
2018-09-21T02:08:07.443Z,11.23
2018-09-21T02:10:48.210Z,9.47
2018-09-21T02:13:29.843Z,10.00
2018-09-21T02:16:10.289Z,12.53
2018-09-21T02:18:50.811Z,15.70
2018-09-21T02:21:31.761Z,9.40
2018-09-21T02:24:12.674Z,10.60
2018-09-21T02:26:54.771Z,11.47
2018-09-21T02:29:35.997Z,11.80
2018-09-21T02:32:17.010Z,12.53
2018-09-21T02:34:58.190Z,8.60
2018-09-21T02:37:39.150Z,8.77
2018-09-21T02:40:20.910Z,11.27
2018-09-21T02:43:01.564Z,8.83
2018-09-21T02:45:41.997Z,15.43
2018-09-21T02:48:22.581Z,12.60
2018-09-21T02:51:03.150Z,9.67
2018-09-21T02:53:43.754Z,10.90
2018-09-21T02:56:24.329Z,12.10
2018-09-21T02:59:05.805Z,11.17
2018-09-21T03:01:46.428Z,10.03
2018-09-21T03:04:27.704Z,10.80
2018-09-21T03:07:08.366Z,9.17
2018-09-21T03:09:49.099Z,11.10
2018-09-21T03:12:29.685Z,10.30
2018-09-21T03:15:10.439Z,11.20
2018-09-21T03:17:51.957Z,12.20
2018-09-21T03:20:32.435Z,9.70
2018-09-21T03:23:12.944Z,11.20
2018-09-21T03:25:54.521Z,8.83
2018-09-21T03:28:35.234Z,10.63
2018-09-21T03:31:16.277Z,12.57
2018-09-21T03:33:57.142Z,9.47
2018-09-21T03:36:38.424Z,9.90
2018-09-21T03:39:18.994Z,13.30
2018-09-21T03:41:59.550Z,10.47
2018-09-21T03:44:39.952Z,9.43
2018-09-21T03:47:20.925Z,11.47
2018-09-21T03:50:01.874Z,9.97
2018-09-21T03:52:42.230Z,10.57
2018-09-21T03:55:24.267Z,11.73
2018-09-21T03:58:05.089Z,11.83
2018-09-21T04:00:45.552Z,12.10
2018-09-21T04:03:26.661Z,12.47
2018-09-21T04:06:08.222Z,10.90
2018-09-21T04:08:49.126Z,9.53
2018-09-21T04:11:30.108Z,11.97
2018-09-21T04:14:11.302Z,15.23
2018-09-21T04:16:52.864Z,11.10
2018-09-21T04:19:33.741Z,14.80
2018-09-21T04:22:15.086Z,12.57
2018-09-21T04:24:56.201Z,10.47
2018-09-21T04:27:36.817Z,12.60
2018-09-21T04:30:18.774Z,13.90
2018-09-21T04:33:00.102Z,9.43
2018-09-21T04:35:41.041Z,11.20
2018-09-21T04:38:21.569Z,12.00
2018-09-21T04:41:02.097Z,11.10
2018-09-21T04:43:42.596Z,14.30
2018-09-21T04:46:23.076Z,13.23
2018-09-21T04:49:03.707Z,10.57
2018-09-21T04:51:44.496Z,11.83
2018-09-21T04:54:25.257Z,13.60
2018-09-21T04:57:06.382Z,16.03
2018-09-21T04:59:47.217Z,16.30
2018-09-21T05:02:28.211Z,10.27
2018-09-21T05:05:09.245Z,12.03
2018-09-21T05:07:50.139Z,11.67
2018-09-21T05:10:31.062Z,11.70
2018-09-21T05:13:12.004Z,12.03
2018-09-21T05:15:52.884Z,13.00
2018-09-21T05:18:33.801Z,13.00
2018-09-21T05:21:15.974Z,10.07
2018-09-21T05:24:02.857Z,13.17
2018-09-21T05:26:43.611Z,13.20
2018-09-21T05:29:24.250Z,12.60
2018-09-21T05:32:05.286Z,14.10
2018-09-21T05:34:46.686Z,13.63
2018-09-21T05:37:27.435Z,13.57
2018-09-21T05:40:08.550Z,11.27
2018-09-21T05:42:49.069Z,12.27
2018-09-21T05:45:30.171Z,12.43
2018-09-21T05:48:13.312Z,12.57
2018-09-21T05:50:54.617Z,11.80
2018-09-21T05:53:35.592Z,14.17
2018-09-21T05:56:19.006Z,10.90
2018-09-21T05:58:59.562Z,12.23
2018-09-21T06:01:40.958Z,14.80
2018-09-21T06:04:22.526Z,14.33
2018-09-21T06:07:03.981Z,9.90
2018-09-21T06:09:44.472Z,14.50
2018-09-21T06:12:25.548Z,12.47
2018-09-21T06:15:07.852Z,12.10
2018-09-21T06:17:49.107Z,12.83
2018-09-21T06:20:30.930Z,12.47
2018-09-21T06:23:12.091Z,15.60
2018-09-21T06:25:54.223Z,10.90
2018-09-21T06:28:35.689Z,11.47
2018-09-21T06:31:16.379Z,12.33
2018-09-21T06:33:56.887Z,15.63
2018-09-21T06:36:37.590Z,11.97
2018-09-21T06:39:18.572Z,12.30
2018-09-21T06:41:59.441Z,11.43
2018-09-21T06:44:40.154Z,14.40
2018-09-21T06:47:21.004Z,12.50
2018-09-21T06:50:03.166Z,12.60
2018-09-21T06:52:44.687Z,13.33
2018-09-21T06:55:25.246Z,16.07
2018-09-21T06:58:06.090Z,12.40
2018-09-21T07:00:47.191Z,12.83
2018-09-21T07:03:27.715Z,11.77
2018-09-21T07:06:09.594Z,9.50
2018-09-21T07:08:50.765Z,9.97
2018-09-21T07:11:31.805Z,13.43
2018-09-21T07:14:13.263Z,11.67
2018-09-21T07:16:55.894Z,13.10
2018-09-21T07:19:36.774Z,9.00
2018-09-21T07:22:17.314Z,10.40
2018-09-21T07:24:57.874Z,8.57
2018-09-21T07:27:38.504Z,8.60
2018-09-21T07:30:19.138Z,9.60
2018-09-21T07:32:59.862Z,10.30
2018-09-21T07:35:40.302Z,9.27
2018-09-21T07:38:20.909Z,17.37
2018-09-21T07:41:01.879Z,11.67
2018-09-21T07:43:42.653Z,17.87
2018-09-21T07:46:23.798Z,15.60
2018-09-21T07:49:04.392Z,9.67
2018-09-21T07:51:45.001Z,12.03
2018-09-21T07:54:25.949Z,13.93
2018-09-21T07:57:07.596Z,8.73
2018-09-21T07:59:48.098Z,7.93
2018-09-21T08:02:29.244Z,9.30
2018-09-21T08:05:10.288Z,8.17
2018-09-21T08:07:52.212Z,8.77
2018-09-21T08:10:32.815Z,8.17
2018-09-21T08:13:13.759Z,7.03
2018-09-21T08:15:54.415Z,7.30
2018-09-21T08:18:35.246Z,6.60
2018-09-21T08:21:16.220Z,6.20
2018-09-21T08:23:56.764Z,13.33
2018-09-21T08:26:37.554Z,9.00
2018-09-21T08:29:18.941Z,11.10
2018-09-21T08:32:00.481Z,7.07
2018-09-21T08:34:41.475Z,9.33
2018-09-21T08:37:23.282Z,7.10
2018-09-21T08:40:04.534Z,9.47
2018-09-21T08:42:45.259Z,10.53
2018-09-21T08:45:26.517Z,4.77
2018-09-21T08:48:08.630Z,5.90
2018-09-21T08:50:49.702Z,4.47
2018-09-21T08:53:30.476Z,6.90
2018-09-21T08:56:12.263Z,4.87
2018-09-21T08:58:52.752Z,5.17
2018-09-21T09:01:33.832Z,5.87
2018-09-21T09:04:15.068Z,3.83
2018-09-21T09:06:55.798Z,6.27
2018-09-21T09:09:36.506Z,4.20
2018-09-21T09:12:17.275Z,6.77
2018-09-21T09:14:57.984Z,4.37
2018-09-21T09:17:38.825Z,4.40
2018-09-21T09:20:20.200Z,7.60
2018-09-21T09:23:01.038Z,4.07
2018-09-21T09:25:41.645Z,4.03
2018-09-21T09:28:22.841Z,7.93
2018-09-21T09:31:03.451Z,5.97
2018-09-21T09:33:44.175Z,4.90
2018-09-21T09:36:25.488Z,4.00
2018-09-21T09:39:10.865Z,4.37
2018-09-21T09:41:52.195Z,6.23
2018-09-21T09:44:32.965Z,4.80
2018-09-21T09:47:13.748Z,4.80
2018-09-21T09:49:54.579Z,5.77
2018-09-21T09:52:35.554Z,9.87
2018-09-21T09:55:16.893Z,9.07
2018-09-21T09:57:58.279Z,4.20
2018-09-21T10:00:44.152Z,9.00
2018-09-21T10:03:26.254Z,4.80
2018-09-21T10:06:07.446Z,4.97
2018-09-21T10:08:48.097Z,6.87
2018-09-21T10:11:29.133Z,5.10
2018-09-21T10:14:10.472Z,9.30
2018-09-21T10:16:51.832Z,4.60
2018-09-21T10:19:32.265Z,5.90
2018-09-21T10:22:13.443Z,6.00
2018-09-21T10:24:54.365Z,8.00
2018-09-21T10:27:35.417Z,9.40
2018-09-21T10:30:16.460Z,5.37
2018-09-21T10:32:57.439Z,5.67
2018-09-21T10:35:39.202Z,4.67
2018-09-21T10:38:20.309Z,5.97
2018-09-21T10:41:01.636Z,6.63
2018-09-21T10:43:42.315Z,4.90
2018-09-21T10:46:23.364Z,4.67
2018-09-21T10:49:03.832Z,4.73
2018-09-21T10:51:45.312Z,5.07
2018-09-21T10:54:25.933Z,5.50
2018-09-21T10:57:06.747Z,5.70
2018-09-21T10:59:49.103Z,7.83
2018-09-21T11:02:30.068Z,5.07
2018-09-21T11:05:10.694Z,6.93
2018-09-21T11:07:51.464Z,5.60
2018-09-21T11:10:32.371Z,4.53
2018-09-21T11:13:13.197Z,6.20
2018-09-21T11:15:55.257Z,8.70
2018-09-21T11:18:36.113Z,5.57
2018-09-21T11:21:17.056Z,12.17
2018-09-21T11:23:57.833Z,6.67
2018-09-21T11:26:38.798Z,6.33
2018-09-21T11:29:19.547Z,8.03
2018-09-21T11:32:00.387Z,6.63
2018-09-21T11:34:42.812Z,5.87
2018-09-21T11:37:23.377Z,8.67
2018-09-21T11:40:04.796Z,6.83
2018-09-21T11:42:46.184Z,11.00
2018-09-21T11:45:26.790Z,5.80
2018-09-21T11:48:07.720Z,6.13
2018-09-21T11:50:49.657Z,8.77
2018-09-21T11:53:31.126Z,10.83
2018-09-21T11:56:11.743Z,8.80
2018-09-21T11:58:52.717Z,8.63
2018-09-21T12:01:33.359Z,7.77
2018-09-21T12:04:17.926Z,7.10
2018-09-21T12:07:00.052Z,10.93
2018-09-21T12:09:41.077Z,10.53
2018-09-21T12:12:22.796Z,8.47
2018-09-21T12:15:03.852Z,14.30
2018-09-21T12:17:44.728Z,8.03
2018-09-21T12:20:25.513Z,7.43
2018-09-21T12:23:06.679Z,10.20
2018-09-21T12:25:47.285Z,5.67
2018-09-21T12:28:28.028Z,11.47
2018-09-21T12:31:08.839Z,7.93
2018-09-21T12:33:49.466Z,10.63
2018-09-21T12:36:30.505Z,8.03
2018-09-21T12:39:13.097Z,7.40
2018-09-21T12:41:53.995Z,5.57
2018-09-21T12:44:35.182Z,5.73
2018-09-21T12:47:16.440Z,16.83
2018-09-21T12:49:57.997Z,10.77
2018-09-21T12:52:39.223Z,13.20
2018-09-21T12:55:20.140Z,5.53
2018-09-21T12:58:01.194Z,11.90
2018-09-21T13:00:50.070Z,8.63
2018-09-21T13:03:31.083Z,6.90
2018-09-21T13:06:11.988Z,6.03
2018-09-21T13:08:53.218Z,11.03
2018-09-21T13:11:34.479Z,6.20
2018-09-21T13:14:15.450Z,11.50
2018-09-21T13:16:56.324Z,7.37
2018-09-21T13:19:37.345Z,5.40
2018-09-21T13:22:18.751Z,6.23
2018-09-21T13:24:59.722Z,5.63
2018-09-21T13:27:40.916Z,6.27
2018-09-21T13:30:21.508Z,7.47
2018-09-21T13:33:02.660Z,5.17
2018-09-21T13:35:43.176Z,6.50
2018-09-21T13:38:23.605Z,6.23
2018-09-21T13:41:04.249Z,7.53
2018-09-21T13:43:45.188Z,7.10
2018-09-21T13:46:26.446Z,6.73
2018-09-21T13:49:07.585Z,9.13
2018-09-21T13:51:48.639Z,9.03
2018-09-21T13:54:29.700Z,8.73
2018-09-21T13:57:10.980Z,6.50
2018-09-21T13:59:52.132Z,11.03
2018-09-21T14:02:33.500Z,6.13
2018-09-21T14:05:14.415Z,7.07
2018-09-21T14:07:55.784Z,13.87
2018-09-21T14:10:37.002Z,9.27
2018-09-21T14:13:17.974Z,6.17
2018-09-21T14:15:59.616Z,8.47
2018-09-21T14:18:40.669Z,8.07
2018-09-21T14:21:21.345Z,8.50
2018-09-21T14:24:02.206Z,5.20
2018-09-21T14:26:46.046Z,10.50
2018-09-21T14:29:27.267Z,8.27
2018-09-21T14:32:08.650Z,5.70
2018-09-21T14:34:49.652Z,11.23
2018-09-21T14:37:31.145Z,5.33
2018-09-21T14:40:12.790Z,7.53
2018-09-21T14:42:53.464Z,9.73
2018-09-21T14:45:35.127Z,6.27
2018-09-21T14:48:17.106Z,7.53
2018-09-21T14:50:59.362Z,7.43
2018-09-21T14:53:41.017Z,6.70
2018-09-21T14:56:22.755Z,7.17
2018-09-21T14:59:03.440Z,7.73
2018-09-21T15:01:45.058Z,7.30
2018-09-21T15:04:25.764Z,10.70
2018-09-21T15:07:06.829Z,7.93
2018-09-21T15:09:48.132Z,7.83
2018-09-21T15:12:28.784Z,5.20
2018-09-21T15:15:09.495Z,8.67
2018-09-21T15:17:50.132Z,9.00
2018-09-21T15:20:30.826Z,9.07
2018-09-21T15:23:12.233Z,8.50
2018-09-21T15:25:53.183Z,7.33
2018-09-21T15:28:33.899Z,10.00
2018-09-21T15:31:15.422Z,8.13
2018-09-21T15:33:56.335Z,8.87
2018-09-21T15:36:37.250Z,7.80
2018-09-21T15:39:18.655Z,8.70
2018-09-21T15:41:59.767Z,25.17
2018-09-21T15:44:40.903Z,10.20
2018-09-21T15:47:22.039Z,10.67
2018-09-21T15:50:03.165Z,20.83
2018-09-21T15:52:45.211Z,8.60
2018-09-21T15:55:26.230Z,11.73
2018-09-21T15:58:07.624Z,11.33
2018-09-21T16:00:48.949Z,8.67
2018-09-21T16:03:30.536Z,8.10
2018-09-21T16:06:11.714Z,6.57
2018-09-21T16:08:52.340Z,7.10
2018-09-21T16:11:33.415Z,7.60
2018-09-21T16:14:15.784Z,6.57
2018-09-21T16:16:56.817Z,6.50
2018-09-21T16:19:39.363Z,8.10
2018-09-21T16:22:20.637Z,6.90
2018-09-21T16:25:01.774Z,4.70
2018-09-21T16:27:42.694Z,6.77
2018-09-21T16:30:23.158Z,6.93
2018-09-21T16:33:04.182Z,10.00
2018-09-21T16:35:45.288Z,5.87
2018-09-21T16:38:27.463Z,97.27
2018-09-21T16:41:08.748Z,97.60
2018-09-21T16:43:49.509Z,65.60
2018-09-21T16:46:30.900Z,62.33
2018-09-21T16:49:11.665Z,61.77
2018-09-21T16:51:52.829Z,53.13
2018-09-21T16:54:34.212Z,31.03
2018-09-21T16:57:15.613Z,28.75
2018-09-21T16:59:56.615Z,30.50
2018-09-21T17:02:37.493Z,22.27
2018-09-21T17:05:19.176Z,26.83
2018-09-21T17:07:59.648Z,6.87
2018-09-21T17:10:40.642Z,15.23
2018-09-21T17:13:22.610Z,10.40
2018-09-21T17:16:03.445Z,8.90
2018-09-21T17:18:43.950Z,10.97
2018-09-21T17:21:24.490Z,10.98
2018-09-21T17:24:06.583Z,13.83
2018-09-21T17:26:47.644Z,5.03
2018-09-21T17:29:29.150Z,3.73
2018-09-21T17:32:10.076Z,4.37
2018-09-21T17:34:51.201Z,3.83
2018-09-21T17:37:31.868Z,5.57
2018-09-21T17:40:12.744Z,4.60
2018-09-21T17:42:53.431Z,4.67
2018-09-21T17:45:34.316Z,4.20
2018-09-21T17:48:15.789Z,2.97
2018-09-21T17:50:56.523Z,4.23
2018-09-21T17:53:37.204Z,2.40
2018-09-21T17:56:18.296Z,4.97
2018-09-21T17:58:58.688Z,6.40
2018-09-21T18:01:39.600Z,5.63
2018-09-21T18:04:21.868Z,3.40
2018-09-21T18:07:02.778Z,2.80
2018-09-21T18:09:43.706Z,5.53
2018-09-21T18:12:24.837Z,5.50
2018-09-21T18:15:05.679Z,3.43
2018-09-21T18:17:46.263Z,4.67
2018-09-21T18:20:27.453Z,5.37
2018-09-21T18:23:15.815Z,5.10
2018-09-21T18:25:56.312Z,6.27
2018-09-21T18:28:38.511Z,2.37
2018-09-21T18:31:19.365Z,4.23
2018-09-21T18:34:00.057Z,4.80
2018-09-21T18:36:41.233Z,2.57
2018-09-21T18:39:23.190Z,3.50
2018-09-21T18:42:04.824Z,5.70
2018-09-21T18:44:45.891Z,4.00
2018-09-21T18:47:26.696Z,4.23
2018-09-21T18:50:07.495Z,6.67
2018-09-21T18:52:48.592Z,2.93
2018-09-21T18:55:29.693Z,4.53
2018-09-21T18:58:11.163Z,5.07
2018-09-21T19:00:52.158Z,4.17
2018-09-21T19:03:34.093Z,3.97
2018-09-21T19:06:15.988Z,4.73
2018-09-21T19:08:56.576Z,4.53
2018-09-21T19:11:37.427Z,7.03
2018-09-21T19:14:18.184Z,5.20
2018-09-21T19:16:59.631Z,6.00
2018-09-21T19:19:40.320Z,4.77
2018-09-21T19:22:20.829Z,3.93
2018-09-21T19:25:01.386Z,3.10
2018-09-21T19:27:41.959Z,5.63
2018-09-21T19:30:22.824Z,6.17
2018-09-21T19:33:03.807Z,4.67
2018-09-21T19:35:44.717Z,5.03
2018-09-21T19:38:25.819Z,5.70
2018-09-21T19:41:08.317Z,4.20
2018-09-21T19:43:49.367Z,4.63
2018-09-21T19:46:30.059Z,4.27
2018-09-21T19:49:10.772Z,5.37
2018-09-21T19:51:51.618Z,3.70
2018-09-21T19:54:32.373Z,6.97
2018-09-21T19:57:13.081Z,5.57
2018-09-21T19:59:54.366Z,5.97
2018-09-21T20:02:35.677Z,6.13
2018-09-21T20:05:16.569Z,3.93
2018-09-21T20:07:57.216Z,3.93
2018-09-21T20:10:38.025Z,5.17
2018-09-21T20:13:18.885Z,4.87
2018-09-21T20:15:59.300Z,4.73
2018-09-21T20:18:39.745Z,4.97
2018-09-21T20:21:20.655Z,5.10
2018-09-21T20:24:01.693Z,4.70
2018-09-21T20:26:43.034Z,9.40
2018-09-21T20:29:23.900Z,5.30
2018-09-21T20:32:10.212Z,5.00
2018-09-21T20:34:51.084Z,3.87
2018-09-21T20:37:31.577Z,4.53
2018-09-21T20:40:12.557Z,3.60
2018-09-21T20:42:53.143Z,4.70
2018-09-21T20:45:33.996Z,6.73
2018-09-21T20:48:14.789Z,4.33
2018-09-21T20:50:55.662Z,8.30
2018-09-21T20:53:39.328Z,7.10
2018-09-21T20:56:20.160Z,6.30
2018-09-21T20:59:01.237Z,2.53
2018-09-21T21:01:42.415Z,4.83
2018-09-21T21:04:23.036Z,6.23
2018-09-21T21:07:03.897Z,6.30
2018-09-21T21:09:44.517Z,5.73
2018-09-21T21:12:25.561Z,5.90
2018-09-21T21:15:06.317Z,7.33
2018-09-21T21:17:47.061Z,8.07
2018-09-21T21:20:27.972Z,8.90
2018-09-21T21:23:09.072Z,4.60
2018-09-21T21:25:49.927Z,4.07
2018-09-21T21:28:30.491Z,11.17
2018-09-21T21:31:11.549Z,7.37
2018-09-21T21:33:52.128Z,6.93
2018-09-21T21:36:33.400Z,7.03
2018-09-21T21:39:14.222Z,8.20
2018-09-21T21:41:54.884Z,5.87
2018-09-21T21:44:35.704Z,6.43
2018-09-21T21:47:16.729Z,6.77
2018-09-21T21:49:57.387Z,6.03
2018-09-21T21:52:38.265Z,4.77
2018-09-21T21:55:19.045Z,8.03
2018-09-21T21:57:59.672Z,8.00
2018-09-21T22:00:45.567Z,5.43
2018-09-21T22:03:26.410Z,4.50
2018-09-21T22:06:07.132Z,5.43
2018-09-21T22:08:47.735Z,6.67
2018-09-21T22:11:33.985Z,5.13
2018-09-21T22:14:15.216Z,4.73
2018-09-21T22:16:55.869Z,5.83
2018-09-21T22:19:36.510Z,5.77
2018-09-21T22:22:17.999Z,7.03
2018-09-21T22:24:58.563Z,5.43
2018-09-21T22:27:40.449Z,5.43
2018-09-21T22:30:21.616Z,5.20
2018-09-21T22:33:02.525Z,3.50
2018-09-21T22:35:43.199Z,6.30
2018-09-21T22:38:24.210Z,4.50
2018-09-21T22:41:05.287Z,7.40
2018-09-21T22:43:45.929Z,5.03
2018-09-21T22:46:27.064Z,4.43
2018-09-21T22:49:10.934Z,7.40
2018-09-21T22:51:52.002Z,5.27
2018-09-21T22:54:33.161Z,8.77
2018-09-21T22:57:13.764Z,5.70
2018-09-21T22:59:57.721Z,7.50
2018-09-21T23:02:42.218Z,7.90
2018-09-21T23:05:22.854Z,6.37
2018-09-21T23:08:06.452Z,6.83
2018-09-21T23:10:47.434Z,7.50
2018-09-21T23:13:28.406Z,6.03
2018-09-21T23:16:09.414Z,7.37
2018-09-21T23:18:50.380Z,6.73
2018-09-21T23:21:31.359Z,6.13
2018-09-21T23:24:12.614Z,8.17
2018-09-21T23:26:54.535Z,7.63
2018-09-21T23:29:35.035Z,3.13
2018-09-21T23:32:15.563Z,5.63
2018-09-21T23:34:57.152Z,5.07
2018-09-21T23:37:37.782Z,3.67
2018-09-21T23:40:18.379Z,5.20
2018-09-21T23:42:59.847Z,5.60
2018-09-21T23:45:40.838Z,9.03
2018-09-21T23:48:21.301Z,5.57
2018-09-21T23:51:02.281Z,4.53
2018-09-21T23:53:43.147Z,5.07
2018-09-21T23:56:23.696Z,4.17
2018-09-21T23:59:04.891Z,3.40
